createdAt,value
2023-06-09T04:38:06.178Z,99873.72
2023-06-09T04:41:10.316Z,99873.72
2023-06-09T04:44:13.207Z,99876.56
2023-06-09T04:47:19.619Z,99877.97
2023-06-09T04:50:22.731Z,99884.53
2023-06-09T04:53:27.334Z,99881.25
2023-06-09T04:56:30.824Z,99874.19
2023-06-09T04:59:34.102Z,99876.47
2023-06-09T05:02:36.713Z,99878.03
2023-06-09T05:05:39.517Z,99865.38
2023-06-09T05:08:42.281Z,99880.50
2023-06-09T05:11:45.055Z,99885.78
2023-06-09T05:14:47.651Z,99894.87
2023-06-09T05:17:51.105Z,99900.06
2023-06-09T05:20:53.848Z,99900.75
2023-06-09T05:23:56.508Z,99900.22
2023-06-09T05:26:59.206Z,99912.22
2023-06-09T05:30:02.211Z,99913.97
2023-06-09T05:33:04.886Z,99905.53
2023-06-09T05:36:07.997Z,99911.59
2023-06-09T05:39:12.235Z,99911.41
2023-06-09T05:42:15.113Z,99917.97
2023-06-09T05:45:17.950Z,99917.75
2023-06-09T05:48:20.560Z,99918.16
2023-06-09T05:51:23.458Z,99924.19
2023-06-09T05:54:26.208Z,99919.28
2023-06-09T05:57:31.314Z,99924.25
2023-06-09T06:00:34.975Z,99932.50
2023-06-09T06:03:39.563Z,99939.97
2023-06-09T06:06:43.078Z,99947.00
2023-06-09T06:09:46.023Z,99956.06
2023-06-09T06:12:48.667Z,99942.03
2023-06-09T06:15:51.229Z,99948.31
2023-06-09T06:18:53.944Z,99946.88
2023-06-09T06:21:56.894Z,99953.56
2023-06-09T06:24:59.563Z,99942.25
2023-06-09T06:28:02.185Z,99951.62
2023-06-09T06:31:05.048Z,99947.13
2023-06-09T06:34:07.967Z,99951.22
2023-06-09T06:37:10.770Z,99940.72
2023-06-09T06:40:14.322Z,99948.47
2023-06-09T06:43:17.244Z,99941.75
2023-06-09T06:46:19.859Z,99931.91
2023-06-09T06:49:22.664Z,99927.94
2023-06-09T06:52:25.436Z,99914.81
2023-06-09T06:55:32.289Z,99920.84
2023-06-09T06:58:36.442Z,99922.28
2023-06-09T07:01:40.489Z,99909.09
2023-06-09T07:04:43.251Z,99905.69
2023-06-09T07:07:47.200Z,99909.87
2023-06-09T07:10:49.933Z,99905.78
2023-06-09T07:13:52.876Z,99918.81
2023-06-09T07:16:55.966Z,99918.97
2023-06-09T07:19:58.665Z,99918.13
2023-06-09T07:23:01.379Z,99909.53
2023-06-09T07:26:04.158Z,99910.56
2023-06-09T07:29:07.034Z,99905.16
2023-06-09T07:32:10.351Z,99908.31
2023-06-09T07:35:14.224Z,99908.63
2023-06-09T07:38:18.205Z,99916.75
2023-06-09T07:41:22.303Z,99915.78
2023-06-09T07:44:25.375Z,99920.34
2023-06-09T07:47:28.083Z,99925.66
2023-06-09T07:50:31.588Z,99928.38
2023-06-09T07:53:39.307Z,99920.22
2023-06-09T07:56:42.206Z,99926.75
2023-06-09T07:59:46.738Z,99924.97
2023-06-09T08:02:51.964Z,99927.78
2023-06-09T08:05:54.646Z,99934.06
2023-06-09T08:08:57.762Z,99937.66
2023-06-09T08:12:00.615Z,99937.41
2023-06-09T08:15:03.266Z,99941.59
2023-06-09T08:18:28.020Z,99956.06
2023-06-09T08:21:35.630Z,99946.38
2023-06-09T08:24:54.008Z,99956.69
2023-06-09T08:28:12.717Z,99962.25
2023-06-09T08:31:27.549Z,99963.69
2023-06-09T08:34:45.109Z,99966.06
2023-06-09T08:38:01.227Z,99961.66
2023-06-09T08:41:29.131Z,99964.63
2023-06-09T08:44:49.449Z,99968.06
2023-06-09T08:48:05.077Z,99965.38
2023-06-09T08:51:10.552Z,99968.88
2023-06-09T08:54:15.579Z,99958.84
2023-06-09T08:57:19.788Z,99968.81
2023-06-09T09:00:23.270Z,99966.25
2023-06-09T09:03:27.018Z,99965.94
2023-06-09T09:06:34.786Z,99969.59
2023-06-09T09:09:41.385Z,99962.69
2023-06-09T09:12:49.044Z,99953.63
2023-06-09T09:15:55.949Z,99955.34
2023-06-09T09:19:05.206Z,99952.72
2023-06-09T09:22:08.989Z,99951.34
2023-06-09T09:25:24.158Z,99950.31
2023-06-09T09:28:39.496Z,99951.34
2023-06-09T09:31:43.418Z,99955.25
2023-06-09T09:34:46.789Z,99957.13
2023-06-09T09:37:53.039Z,99950.38
2023-06-09T09:40:59.691Z,99954.16
2023-06-09T09:44:02.679Z,99953.19
2023-06-09T09:47:06.799Z,99956.69
2023-06-09T09:50:11.728Z,99950.53
2023-06-09T09:53:15.813Z,99961.13
2023-06-09T09:56:24.500Z,99962.91
2023-06-09T09:59:27.324Z,99954.06
2023-06-09T10:02:31.645Z,99950.31
2023-06-09T10:05:39.567Z,99953.47
2023-06-09T10:08:44.155Z,99947.41
2023-06-09T10:11:46.866Z,99946.81
2023-06-09T10:14:50.095Z,99950.81
2023-06-09T10:17:56.156Z,99942.44
2023-06-09T10:20:59.055Z,99944.31
2023-06-09T10:24:03.423Z,99941.56
2023-06-09T10:27:07.328Z,99947.03
2023-06-09T10:30:10.854Z,99928.69
2023-06-09T10:33:34.726Z,99939.19
2023-06-09T10:36:42.333Z,99937.22
2023-06-09T10:40:11.562Z,99932.50
2023-06-09T10:43:53.107Z,99930.06
2023-06-09T10:46:56.728Z,99932.50
2023-06-09T10:50:00.113Z,99926.75
2023-06-09T10:53:04.372Z,99923.41
2023-06-09T10:56:38.616Z,99921.06
2023-06-09T10:59:41.444Z,99926.00
2023-06-09T11:03:16.524Z,99917.97
2023-06-09T11:06:19.258Z,99915.31
2023-06-09T11:09:21.991Z,99902.87
2023-06-09T11:12:48.754Z,99908.22
2023-06-09T11:16:03.498Z,99904.53
2023-06-09T11:19:24.815Z,99895.28
2023-06-09T11:22:29.020Z,99902.56
2023-06-09T11:25:32.145Z,99897.91
2023-06-09T11:28:41.466Z,99900.50
2023-06-09T11:31:50.634Z,99890.38
2023-06-09T11:34:54.099Z,99892.16
2023-06-09T11:37:57.627Z,99892.81
2023-06-09T11:41:00.211Z,99892.25
2023-06-09T11:44:02.840Z,99892.16
2023-06-09T11:47:33.564Z,99899.47
2023-06-09T11:50:46.838Z,99886.66
2023-06-09T11:53:49.903Z,99891.03
2023-06-09T11:56:52.697Z,99883.56
2023-06-09T11:59:55.376Z,99883.91
2023-06-09T12:02:58.449Z,99886.37
2023-06-09T12:06:01.417Z,99881.16
2023-06-09T12:09:21.565Z,99874.47
2023-06-09T12:12:24.584Z,99876.16
2023-06-09T12:15:28.869Z,99873.53
2023-06-09T12:18:31.539Z,99873.81
2023-06-09T12:21:34.336Z,99877.22
2023-06-09T12:24:37.068Z,99872.69
2023-06-09T12:27:39.639Z,99869.09
2023-06-09T12:30:51.417Z,99879.69
2023-06-09T12:33:57.903Z,99878.78
2023-06-09T12:37:00.643Z,99877.41
2023-06-09T12:40:07.268Z,99868.22
2023-06-09T12:43:12.365Z,99870.31
2023-06-09T12:46:21.448Z,99863.78
2023-06-09T12:49:33.667Z,99867.50
2023-06-09T12:52:36.306Z,99860.75
2023-06-09T12:55:39.340Z,99860.75
2023-06-09T12:58:41.920Z,99862.13
2023-06-09T13:01:44.676Z,99853.56
2023-06-09T13:04:47.386Z,99857.16
2023-06-09T13:07:50.302Z,99849.84
2023-06-09T13:10:53.094Z,99845.78
2023-06-09T13:13:56.965Z,99844.00
2023-06-09T13:16:59.660Z,99848.16
2023-06-09T13:20:04.195Z,99840.78
2023-06-09T13:23:07.116Z,99845.44
2023-06-09T13:26:11.161Z,99830.16
2023-06-09T13:29:13.697Z,99828.09
2023-06-09T13:32:16.287Z,99827.25
2023-06-09T13:35:18.945Z,99827.16
2023-06-09T13:38:21.695Z,99832.16
2023-06-09T13:41:24.305Z,99824.16
2023-06-09T13:44:26.865Z,99819.03
2023-06-09T13:47:29.584Z,99811.66
2023-06-09T13:50:32.254Z,99817.22
2023-06-09T13:53:34.892Z,99817.56
2023-06-09T13:56:37.748Z,99811.41
2023-06-09T13:59:40.853Z,99813.47
2023-06-09T14:02:44.452Z,99818.56
2023-06-09T14:05:49.635Z,99808.84
2023-06-09T14:08:52.150Z,99812.06
2023-06-09T14:11:56.640Z,99806.62
2023-06-09T14:15:03.002Z,99811.16
2023-06-09T14:18:07.221Z,99814.97
2023-06-09T14:21:09.972Z,99812.50
2023-06-09T14:24:12.672Z,99813.25
2023-06-09T14:27:15.439Z,99814.19
2023-06-09T14:30:19.460Z,99816.38
2023-06-09T14:33:22.998Z,99810.78
2023-06-09T14:36:25.600Z,99817.53
2023-06-09T14:39:28.430Z,99812.03
2023-06-09T14:42:30.955Z,99817.22
2023-06-09T14:45:35.394Z,99812.22
2023-06-09T14:48:38.081Z,99816.75
2023-06-09T14:51:41.076Z,99816.56
2023-06-09T14:54:43.716Z,99814.38
2023-06-09T14:57:46.437Z,99814.38
2023-06-09T15:00:49.059Z,99806.91
2023-06-09T15:03:54.552Z,99806.44
2023-06-09T15:06:58.316Z,99798.50
2023-06-09T15:10:01.188Z,99802.28
2023-06-09T15:13:04.566Z,99797.28
2023-06-09T15:16:07.165Z,99801.53
2023-06-09T15:19:09.795Z,99792.25
2023-06-09T15:22:16.803Z,99793.28
2023-06-09T15:25:26.814Z,99785.16
2023-06-09T15:28:29.439Z,99790.94
